Time;durP1;ratioP1;P1;durP2;ratioP2;P2;SDS_P1;SDS_P2;PMS_P1;PMS_P2;Temp;Humidity;BMP_temperature;BMP_pressure;BME280_temperature;BME280_humidity;BME280_pressure;Samples;Min_cycle;Max_cycle;Signal;HPM_P1;HPM_P2
2021/06/26 00:00:33;;;;;;;;;;;12.70;99.90;;;;;;5037773;28;19925;-72
2021/06/26 00:03:00;;;;;;;;;;;12.70;99.90;;;;;;5037996;28;19925;-72
2021/06/26 00:05:27;;;;;;;;;;;12.70;99.90;;;;;;5038051;28;19925;-72
2021/06/26 00:07:53;;;;;;;;;;;12.70;99.90;;;;;;5037641;28;19935;-71
2021/06/26 00:10:20;;;;;;;;;;;12.60;99.90;;;;;;5037770;28;19944;-72
2021/06/26 00:12:47;;;;;;;;;;;12.60;99.90;;;;;;5037630;28;19929;-73
2021/06/26 00:15:14;;;;;;;;;;;12.60;99.90;;;;;;5037901;28;19951;-72
2021/06/26 00:17:42;;;;;;;;;;;12.60;99.90;;;;;;5037970;28;19925;-72
2021/06/26 00:20:10;;;;;;;;;;;12.60;99.90;;;;;;5037303;28;19925;-72
2021/06/26 00:22:36;;;;;;;;;;;12.60;99.90;;;;;;5037678;28;19929;-72
2021/06/26 00:25:04;;;;;;;;;;;12.60;99.90;;;;;;5037364;28;19926;-72
2021/06/26 00:27:31;;;;;;;;;;;12.60;99.90;;;;;;5037491;28;19925;-72
2021/06/26 00:29:58;;;;;;;;;;;12.60;99.90;;;;;;5037261;28;19991;-72
2021/06/26 00:32:25;;;;;;;;;;;12.60;99.90;;;;;;5037543;28;19925;-72
2021/06/26 00:34:53;;;;;;;;;;;12.60;99.90;;;;;;5037315;28;19925;-72
2021/06/26 00:37:20;;;;;;;;;;;12.60;99.90;;;;;;5037103;28;19925;-72
2021/06/26 00:39:47;;;;;;;;;;;12.60;99.90;;;;;;5037163;28;19935;-72
2021/06/26 00:42:14;;;;;;;;;;;12.50;99.90;;;;;;5037091;28;19925;-72
2021/06/26 00:44:41;;;;;;;;;;;12.50;99.90;;;;;;5037506;28;19926;-72
2021/06/26 00:47:12;;;;;;;;;;;12.50;99.90;;;;;;5036998;28;19991;-72
2021/06/26 00:49:39;;;;;;;;;;;12.50;99.90;;;;;;5037071;28;19983;-72
2021/06/26 00:52:08;;;;;;;;;;;12.50;99.90;;;;;;5036893;28;20031;-72
2021/06/26 00:54:34;;;;;;;;;;;12.50;99.90;;;;;;5036936;28;20020;-72
2021/06/26 00:57:01;;;;;;;;;;;12.40;99.90;;;;;;5036974;28;19925;-72
2021/06/26 00:59:28;;;;;;;;;;;12.50;99.90;;;;;;5035941;28;19936;-76
2021/06/26 01:01:55;;;;;;;;;;;12.40;99.90;;;;;;5036760;28;19925;-77
2021/06/26 01:04:22;;;;;;;;;;;12.40;99.90;;;;;;5036927;28;20015;-72
2021/06/26 01:06:49;;;;;;;;;;;12.40;99.90;;;;;;5036542;28;19931;-72
2021/06/26 01:09:17;;;;;;;;;;;12.50;99.90;;;;;;5036590;28;19924;-72
2021/06/26 01:11:44;;;;;;;;;;;12.50;99.90;;;;;;5036820;28;19925;-72
2021/06/26 01:14:10;;;;;;;;;;;12.50;99.90;;;;;;5036726;28;19925;-72
2021/06/26 01:16:37;;;;;;;;;;;12.50;99.90;;;;;;5036729;28;19939;-73
2021/06/26 01:19:04;;;;;;;;;;;12.50;99.90;;;;;;5036396;28;19933;-73
2021/06/26 01:21:31;;;;;;;;;;;12.50;99.90;;;;;;5036359;28;20246;-74
2021/06/26 01:23:59;;;;;;;;;;;12.50;99.90;;;;;;5036272;28;19935;-72
2021/06/26 01:26:31;;;;;;;;;;;12.50;99.90;;;;;;5036527;28;20301;-72
2021/06/26 01:28:58;;;;;;;;;;;12.50;99.90;;;;;;5036400;28;20366;-72
2021/06/26 01:31:25;;;;;;;;;;;12.50;99.90;;;;;;5036150;28;19932;-72
2021/06/26 01:33:52;;;;;;;;;;;12.50;99.90;;;;;;5036236;28;19925;-72
2021/06/26 01:36:19;;;;;;;;;;;12.50;99.90;;;;;;5036145;28;19925;-72
2021/06/26 01:38:53;;;;;;;;;;;12.50;99.90;;;;;;5036199;28;20368;-72
2021/06/26 01:41:21;;;;;;;;;;;12.50;99.90;;;;;;5036032;28;19925;-73
2021/06/26 01:43:48;;;;;;;;;;;12.50;99.90;;;;;;5036121;28;19939;-73
2021/06/26 01:46:15;;;;;;;;;;;12.50;99.90;;;;;;5036260;28;19925;-73
2021/06/26 01:48:42;;;;;;;;;;;12.50;99.90;;;;;;5035890;28;20272;-73
2021/06/26 01:51:08;;;;;;;;;;;12.50;99.90;;;;;;5035685;28;19929;-73
2021/06/26 01:53:35;;;;;;;;;;;12.50;99.90;;;;;;5035800;28;19925;-73
2021/06/26 01:56:02;;;;;;;;;;;12.50;99.90;;;;;;5036014;28;19925;-73
2021/06/26 01:58:30;;;;;;;;;;;12.50;99.90;;;;;;5035727;28;19935;-73
2021/06/26 02:00:57;;;;;;;;;;;12.50;99.90;;;;;;5035600;28;19961;-73
2021/06/26 02:03:24;;;;;;;;;;;12.50;99.90;;;;;;5035626;28;19931;-73
2021/06/26 02:05:51;;;;;;;;;;;12.50;99.90;;;;;;5035574;28;19925;-73
2021/06/26 02:08:18;;;;;;;;;;;12.50;99.90;;;;;;5035699;28;19929;-72
2021/06/26 02:10:44;;;;;;;;;;;12.60;99.90;;;;;;5035604;28;20227;-73
2021/06/26 02:13:11;;;;;;;;;;;12.50;99.90;;;;;;5035842;28;19940;-73
2021/06/26 02:15:39;;;;;;;;;;;12.50;99.90;;;;;;5035544;28;19929;-73
2021/06/26 02:18:06;;;;;;;;;;;12.50;99.90;;;;;;5035555;28;19935;-73
2021/06/26 02:20:33;;;;;;;;;;;12.50;99.90;;;;;;5035743;28;19935;-73
2021/06/26 02:23:00;;;;;;;;;;;12.50;99.90;;;;;;5035297;28;19925;-73
2021/06/26 02:25:27;;;;;;;;;;;12.50;99.90;;;;;;5035400;28;19925;-73
2021/06/26 02:27:55;;;;;;;;;;;12.50;99.90;;;;;;5035384;28;19926;-73
2021/06/26 02:30:22;;;;;;;;;;;12.50;99.90;;;;;;5035439;28;19924;-72
2021/06/26 02:32:50;;;;;;;;;;;12.50;99.90;;;;;;5035071;28;19929;-73
2021/06/26 02:35:17;;;;;;;;;;;12.50;99.90;;;;;;5035384;28;19925;-72
2021/06/26 02:37:44;;;;;;;;;;;12.50;99.90;;;;;;5035287;28;19925;-73
2021/06/26 02:40:11;;;;;;;;;;;12.50;99.90;;;;;;5035041;28;20238;-73
2021/06/26 02:42:38;;;;;;;;;;;12.50;99.90;;;;;;5035018;28;20317;-73
2021/06/26 02:45:06;;;;;;;;;;;12.40;99.90;;;;;;5034986;28;19924;-72
2021/06/26 02:47:33;;;;;;;;;;;12.50;99.90;;;;;;5035039;28;19931;-73
2021/06/26 02:50:01;;;;;;;;;;;12.40;99.90;;;;;;5035395;28;19925;-72
2021/06/26 02:52:28;;;;;;;;;;;12.40;99.90;;;;;;5034852;28;19926;-73
2021/06/26 02:54:54;;;;;;;;;;;12.30;99.90;;;;;;5035087;28;19925;-73
2021/06/26 02:57:21;;;;;;;;;;;12.30;99.90;;;;;;5034986;28;19936;-72
2021/06/26 02:59:48;;;;;;;;;;;12.30;99.90;;;;;;5034997;28;19925;-72
2021/06/26 03:02:15;;;;;;;;;;;12.20;99.90;;;;;;5034928;28;19947;-71
2021/06/26 03:04:42;;;;;;;;;;;12.20;99.90;;;;;;5034869;28;20337;-72
2021/06/26 03:07:10;;;;;;;;;;;12.20;99.90;;;;;;5034549;28;19929;-72
2021/06/26 03:09:37;;;;;;;;;;;12.20;99.90;;;;;;5034996;28;19925;-72
2021/06/26 03:12:04;;;;;;;;;;;12.20;99.90;;;;;;5034891;28;19935;-72
2021/06/26 03:14:31;;;;;;;;;;;12.10;99.90;;;;;;5035095;28;19925;-72
2021/06/26 03:16:58;;;;;;;;;;;12.10;99.90;;;;;;5034672;28;19925;-72
2021/06/26 03:19:25;;;;;;;;;;;12.00;99.90;;;;;;5035021;28;20256;-72
2021/06/26 03:21:52;;;;;;;;;;;12.00;99.90;;;;;;5036417;28;19931;-72
2021/06/26 03:24:20;;;;;;;;;;;11.90;99.90;;;;;;5038553;28;19935;-72
2021/06/26 03:26:47;;;;;;;;;;;11.90;99.90;;;;;;5038620;28;19925;-71
2021/06/26 03:29:14;;;;;;;;;;;11.90;99.90;;;;;;5038489;28;20280;-72
2021/06/26 03:31:40;;;;;;;;;;;11.80;99.90;;;;;;5038415;28;19931;-72
2021/06/26 03:34:07;;;;;;;;;;;11.80;99.90;;;;;;5038636;28;19933;-71
2021/06/26 03:36:34;;;;;;;;;;;11.90;99.90;;;;;;5038461;28;19925;-71
2021/06/26 03:39:01;;;;;;;;;;;11.90;99.90;;;;;;5038357;28;19925;-71
2021/06/26 03:41:29;;;;;;;;;;;11.90;99.90;;;;;;5038377;28;19936;-71
2021/06/26 03:43:58;;;;;;;;;;;11.90;99.90;;;;;;5038400;28;19926;-72
2021/06/26 03:46:24;;;;;;;;;;;11.90;99.90;;;;;;5038422;28;19925;-71
2021/06/26 03:48:51;;;;;;;;;;;11.90;99.90;;;;;;5038238;28;20352;-71
2021/06/26 03:51:18;;;;;;;;;;;11.90;99.90;;;;;;5038070;28;19931;-71
2021/06/26 03:53:46;;;;;;;;;;;11.90;99.90;;;;;;5038015;28;19936;-71
2021/06/26 03:56:13;;;;;;;;;;;11.90;99.90;;;;;;5037925;28;19925;-71
2021/06/26 03:58:42;;;;;;;;;;;11.90;99.90;;;;;;5037823;28;19929;-71
2021/06/26 04:01:09;;;;;;;;;;;11.90;99.90;;;;;;5038144;28;20264;-71
2021/06/26 04:03:36;;;;;;;;;;;11.90;99.90;;;;;;5037747;28;19931;-71
2021/06/26 04:06:02;;;;;;;;;;;11.90;99.90;;;;;;5037803;28;19925;-71
2021/06/26 04:08:29;;;;;;;;;;;11.90;99.90;;;;;;5037879;28;19925;-71
2021/06/26 04:10:56;;;;;;;;;;;11.90;99.90;;;;;;5037860;28;19925;-71
2021/06/26 04:13:23;;;;;;;;;;;11.80;99.90;;;;;;5037638;28;19924;-71
2021/06/26 04:15:51;;;;;;;;;;;11.80;99.90;;;;;;5037839;28;19929;-71
2021/06/26 04:18:18;;;;;;;;;;;11.80;99.90;;;;;;5037961;28;19935;-71
2021/06/26 04:20:45;;;;;;;;;;;11.80;99.90;;;;;;5033297;28;20676;-71
2021/06/26 04:23:12;;;;;;;;;;;11.80;99.90;;;;;;5036685;28;19931;-71
2021/06/26 04:25:38;;;;;;;;;;;11.80;99.90;;;;;;5037400;28;19935;-71
2021/06/26 04:28:06;;;;;;;;;;;11.80;99.90;;;;;;5037412;28;19925;-71
2021/06/26 04:30:33;;;;;;;;;;;11.80;99.90;;;;;;5037478;28;19925;-71
2021/06/26 04:33:02;;;;;;;;;;;11.80;99.90;;;;;;5036119;28;19935;-71
2021/06/26 04:35:28;;;;;;;;;;;11.80;99.90;;;;;;5037453;28;19983;-71
2021/06/26 04:37:55;;;;;;;;;;;11.80;99.90;;;;;;5037171;28;19933;-71
2021/06/26 04:40:22;;;;;;;;;;;11.90;99.90;;;;;;5037210;28;19925;-71
2021/06/26 04:42:49;;;;;;;;;;;11.90;99.90;;;;;;5037129;28;20239;-71
2021/06/26 04:45:16;;;;;;;;;;;12.00;99.90;;;;;;5037100;28;19940;-71
2021/06/26 04:47:43;;;;;;;;;;;12.00;99.90;;;;;;5037079;28;19925;-71
2021/06/26 04:50:11;;;;;;;;;;;12.00;99.90;;;;;;5037341;28;20348;-71
2021/06/26 04:52:39;;;;;;;;;;;12.10;99.90;;;;;;5037100;28;19928;-71
2021/06/26 04:55:06;;;;;;;;;;;12.10;99.90;;;;;;5036878;28;19952;-71
2021/06/26 04:57:33;;;;;;;;;;;12.10;99.90;;;;;;5037267;28;20284;-71
2021/06/26 05:00:00;;;;;;;;;;;12.20;99.90;;;;;;5036685;28;19925;-71
2021/06/26 05:02:27;;;;;;;;;;;12.20;99.90;;;;;;5036848;28;19925;-71
2021/06/26 05:04:54;;;;;;;;;;;12.30;99.90;;;;;;5036810;28;19925;-71
2021/06/26 05:07:22;;;;;;;;;;;12.30;99.90;;;;;;5036541;28;19936;-71
2021/06/26 05:09:49;;;;;;;;;;;12.40;99.90;;;;;;5036594;28;19925;-71
2021/06/26 05:12:16;;;;;;;;;;;12.50;99.90;;;;;;5036863;28;19925;-71
2021/06/26 05:14:42;;;;;;;;;;;12.50;99.90;;;;;;5036744;28;19925;-71
2021/06/26 05:17:09;;;;;;;;;;;12.50;99.90;;;;;;5036626;28;19955;-71
2021/06/26 05:19:36;;;;;;;;;;;12.60;99.90;;;;;;5036469;28;20341;-71
2021/06/26 05:22:03;;;;;;;;;;;12.60;99.90;;;;;;5036470;28;19925;-71
2021/06/26 05:24:31;;;;;;;;;;;12.60;99.90;;;;;;5036334;28;19947;-71
2021/06/26 05:26:58;;;;;;;;;;;12.70;99.90;;;;;;5035147;28;19936;-71
2021/06/26 05:29:25;;;;;;;;;;;12.70;99.90;;;;;;5036227;28;19935;-71
2021/06/26 05:31:52;;;;;;;;;;;12.60;99.90;;;;;;5036352;28;19929;-71
2021/06/26 05:34:19;;;;;;;;;;;12.60;99.90;;;;;;5036223;28;19955;-71
2021/06/26 05:36:46;;;;;;;;;;;12.60;99.90;;;;;;5036020;28;20269;-71
2021/06/26 05:39:12;;;;;;;;;;;12.60;99.90;;;;;;5035990;28;19926;-71
2021/06/26 05:41:41;;;;;;;;;;;12.60;99.90;;;;;;5035990;28;19925;-71
2021/06/26 05:44:07;;;;;;;;;;;12.70;99.90;;;;;;5035832;28;19925;-71
2021/06/26 05:46:34;;;;;;;;;;;12.70;99.90;;;;;;5035860;28;19925;-71
2021/06/26 05:49:02;;;;;;;;;;;12.70;99.90;;;;;;5035760;28;19939;-72
2021/06/26 05:51:28;;;;;;;;;;;12.70;99.90;;;;;;5035803;28;20342;-71
2021/06/26 05:53:55;;;;;;;;;;;12.70;99.90;;;;;;5035805;28;20349;-71
2021/06/26 05:56:22;;;;;;;;;;;12.70;99.90;;;;;;5035677;28;19932;-71
2021/06/26 05:58:51;;;;;;;;;;;12.80;99.90;;;;;;5036044;28;19932;-71
2021/06/26 06:01:18;;;;;;;;;;;12.80;99.90;;;;;;5035649;28;20353;-71
2021/06/26 06:03:46;;;;;;;;;;;12.80;99.90;;;;;;5035646;28;19925;-71
2021/06/26 06:06:13;;;;;;;;;;;12.80;99.90;;;;;;5035612;28;19924;-72
2021/06/26 06:08:40;;;;;;;;;;;12.90;99.90;;;;;;5035302;28;20007;-71
2021/06/26 06:11:07;;;;;;;;;;;12.90;99.90;;;;;;5035627;28;19935;-72
2021/06/26 06:13:34;;;;;;;;;;;12.90;99.90;;;;;;5035631;28;19931;-72
2021/06/26 06:16:02;;;;;;;;;;;12.90;99.90;;;;;;5035669;28;19929;-72
2021/06/26 06:18:29;;;;;;;;;;;13.00;99.90;;;;;;5035238;28;19932;-72
2021/06/26 06:20:56;;;;;;;;;;;13.00;99.90;;;;;;5035593;28;19925;-73
2021/06/26 06:23:23;;;;;;;;;;;13.00;99.90;;;;;;5035754;28;19928;-72
2021/06/26 06:25:49;;;;;;;;;;;13.10;99.90;;;;;;5035558;28;19925;-72
2021/06/26 06:28:16;;;;;;;;;;;13.20;99.90;;;;;;5035241;28;20366;-72
2021/06/26 06:30:43;;;;;;;;;;;13.20;99.90;;;;;;5035202;28;19940;-72
2021/06/26 06:33:11;;;;;;;;;;;13.20;99.90;;;;;;5035103;28;19929;-72
2021/06/26 06:35:38;;;;;;;;;;;13.20;99.90;;;;;;5035441;28;19939;-72
2021/06/26 06:38:05;;;;;;;;;;;13.20;99.90;;;;;;5035132;28;20349;-72
2021/06/26 06:40:32;;;;;;;;;;;13.20;99.90;;;;;;5034995;28;19939;-72
2021/06/26 06:42:58;;;;;;;;;;;13.20;99.90;;;;;;5035146;28;19943;-72
2021/06/26 06:45:25;;;;;;;;;;;13.20;99.90;;;;;;5035151;28;19925;-72
2021/06/26 06:47:52;;;;;;;;;;;13.20;99.90;;;;;;5035085;28;19929;-72
2021/06/26 06:50:20;;;;;;;;;;;13.20;99.90;;;;;;5035280;28;19925;-72
2021/06/26 06:52:47;;;;;;;;;;;13.20;99.90;;;;;;5035172;28;19925;-72
2021/06/26 06:55:14;;;;;;;;;;;13.20;99.90;;;;;;5035172;28;20230;-72
2021/06/26 06:57:41;;;;;;;;;;;13.20;99.90;;;;;;5038110;28;19935;-72
2021/06/26 07:00:08;;;;;;;;;;;13.20;99.90;;;;;;5039225;28;19936;-72
2021/06/26 07:02:35;;;;;;;;;;;13.20;99.90;;;;;;5038930;28;19925;-72
2021/06/26 07:05:02;;;;;;;;;;;13.30;99.90;;;;;;5039177;28;19925;-72
2021/06/26 07:07:30;;;;;;;;;;;13.30;99.90;;;;;;5039010;28;20352;-72
2021/06/26 07:09:57;;;;;;;;;;;13.30;99.90;;;;;;5039031;28;19936;-72
2021/06/26 07:12:24;;;;;;;;;;;13.40;99.90;;;;;;5039168;28;19947;-72
2021/06/26 07:14:51;;;;;;;;;;;13.50;99.90;;;;;;5038989;28;19925;-72
2021/06/26 07:17:17;;;;;;;;;;;13.50;99.90;;;;;;5038718;28;20272;-72
2021/06/26 07:19:44;;;;;;;;;;;13.60;99.90;;;;;;5038605;28;19926;-72
2021/06/26 07:22:11;;;;;;;;;;;13.60;99.90;;;;;;5038610;28;20349;-72
2021/06/26 07:24:39;;;;;;;;;;;13.70;99.90;;;;;;5038563;28;20372;-72
2021/06/26 07:27:06;;;;;;;;;;;13.80;99.90;;;;;;5038564;28;19929;-72
2021/06/26 07:29:33;;;;;;;;;;;13.80;99.90;;;;;;5038434;28;20250;-72
2021/06/26 07:32:00;;;;;;;;;;;13.90;99.90;;;;;;5038335;28;20330;-72
2021/06/26 07:34:27;;;;;;;;;;;14.00;99.90;;;;;;5038546;28;19925;-72
2021/06/26 07:36:54;;;;;;;;;;;14.00;99.90;;;;;;5038402;28;19933;-72
2021/06/26 07:39:20;;;;;;;;;;;14.10;99.90;;;;;;5038360;28;19925;-72
2021/06/26 07:41:49;;;;;;;;;;;14.10;99.90;;;;;;5038382;28;19944;-72
2021/06/26 07:44:17;;;;;;;;;;;14.20;99.90;;;;;;5038226;28;20260;-72
2021/06/26 07:46:44;;;;;;;;;;;14.20;99.90;;;;;;5038207;28;19969;-72
2021/06/26 07:49:11;;;;;;;;;;;14.30;99.90;;;;;;5038588;28;19925;-72
2021/06/26 07:51:38;;;;;;;;;;;14.30;99.90;;;;;;5038154;28;19931;-72
2021/06/26 07:54:05;;;;;;;;;;;14.40;99.90;;;;;;5038336;28;20007;-72
2021/06/26 07:56:32;;;;;;;;;;;14.40;99.90;;;;;;5038035;28;19925;-72
2021/06/26 07:59:00;;;;;;;;;;;14.40;99.90;;;;;;5037873;28;20411;-72
2021/06/26 08:01:27;;;;;;;;;;;14.40;99.90;;;;;;5037878;28;19937;-72
2021/06/26 08:03:54;;;;;;;;;;;14.40;99.90;;;;;;5037988;28;19972;-72
2021/06/26 08:06:21;;;;;;;;;;;14.40;99.90;;;;;;5037862;28;19925;-73
2021/06/26 08:08:48;;;;;;;;;;;14.50;99.90;;;;;;5037522;28;19925;-72
2021/06/26 08:11:15;;;;;;;;;;;14.50;99.90;;;;;;5037791;28;19931;-72
2021/06/26 08:13:41;;;;;;;;;;;14.60;99.90;;;;;;5037925;28;19925;-71
2021/06/26 08:16:10;;;;;;;;;;;14.60;99.90;;;;;;5037872;28;19932;-72
2021/06/26 08:18:37;;;;;;;;;;;14.60;99.90;;;;;;5037987;28;19929;-72
2021/06/26 08:21:04;;;;;;;;;;;14.60;99.90;;;;;;5037663;28;20281;-72
2021/06/26 08:23:30;;;;;;;;;;;14.60;99.90;;;;;;5037631;28;19933;-72
2021/06/26 08:25:57;;;;;;;;;;;14.50;99.90;;;;;;5037501;28;19925;-72
2021/06/26 08:28:24;;;;;;;;;;;14.50;99.90;;;;;;5037433;28;19925;-72
2021/06/26 08:30:51;;;;;;;;;;;14.50;99.90;;;;;;5037623;28;20230;-72
2021/06/26 08:33:19;;;;;;;;;;;14.50;99.90;;;;;;5037313;28;20349;-72
2021/06/26 08:35:46;;;;;;;;;;;14.60;99.90;;;;;;5037429;28;19925;-72
2021/06/26 08:38:13;;;;;;;;;;;14.70;99.90;;;;;;5037384;28;19925;-72
2021/06/26 08:40:40;;;;;;;;;;;14.90;99.90;;;;;;5037116;28;20269;-72
2021/06/26 08:43:07;;;;;;;;;;;15.10;99.90;;;;;;5037128;28;19936;-72
2021/06/26 08:45:34;;;;;;;;;;;15.40;99.90;;;;;;5037324;28;19929;-72
2021/06/26 08:48:00;;;;;;;;;;;15.50;99.90;;;;;;5037201;28;19936;-72
2021/06/26 08:50:29;;;;;;;;;;;15.60;99.90;;;;;;5036933;28;19925;-72
2021/06/26 08:52:56;;;;;;;;;;;15.70;99.90;;;;;;5036945;28;19935;-72
2021/06/26 08:55:23;;;;;;;;;;;15.90;99.90;;;;;;5036924;28;19925;-72
2021/06/26 08:57:50;;;;;;;;;;;15.90;99.90;;;;;;5037053;28;19936;-72
2021/06/26 09:00:17;;;;;;;;;;;15.90;99.90;;;;;;5036709;28;19936;-73
2021/06/26 09:02:44;;;;;;;;;;;15.90;99.90;;;;;;5036999;28;19935;-72
2021/06/26 09:05:11;;;;;;;;;;;15.90;99.90;;;;;;5036819;28;19925;-72
2021/06/26 09:07:40;;;;;;;;;;;15.80;99.90;;;;;;5036517;28;19932;-72
2021/06/26 09:10:13;;;;;;;;;;;15.80;99.90;;;;;;5036627;28;19929;-73
2021/06/26 09:12:40;;;;;;;;;;;15.90;99.90;;;;;;5036815;28;19925;-72
2021/06/26 09:15:07;;;;;;;;;;;15.90;99.90;;;;;;5036473;28;20341;-72
2021/06/26 09:17:35;;;;;;;;;;;15.80;99.90;;;;;;5036743;28;20440;-72
2021/06/26 09:20:06;;;;;;;;;;;15.70;99.90;;;;;;5035845;28;19935;-72
2021/06/26 09:22:36;;;;;;;;;;;15.60;99.90;;;;;;5036362;28;19930;-72
2021/06/26 09:25:05;;;;;;;;;;;15.60;99.90;;;;;;5036663;28;20376;-72
2021/06/26 09:27:33;;;;;;;;;;;15.70;99.90;;;;;;5036366;28;19925;-72
2021/06/26 09:30:00;;;;;;;;;;;15.70;99.90;;;;;;5036222;28;20016;-74
2021/06/26 09:32:27;;;;;;;;;;;15.70;99.90;;;;;;5036339;28;19932;-72
2021/06/26 09:34:54;;;;;;;;;;;15.70;99.90;;;;;;5036155;28;19925;-73
2021/06/26 09:37:21;;;;;;;;;;;15.80;99.90;;;;;;5036121;28;19925;-73
2021/06/26 09:39:48;;;;;;;;;;;15.90;99.90;;;;;;5036224;28;19925;-73
2021/06/26 09:42:17;;;;;;;;;;;16.00;99.90;;;;;;5036038;28;19925;-72
2021/06/26 09:44:48;;;;;;;;;;;16.10;99.90;;;;;;5036181;28;19979;-73
2021/06/26 09:47:24;;;;;;;;;;;16.10;99.90;;;;;;5036013;28;19925;-72
2021/06/26 09:49:51;;;;;;;;;;;16.10;99.90;;;;;;5036163;28;20265;-73
2021/06/26 09:52:18;;;;;;;;;;;16.20;99.90;;;;;;5035796;28;19924;-73
2021/06/26 09:54:45;;;;;;;;;;;16.20;99.90;;;;;;5035721;28;19925;-73
2021/06/26 09:57:12;;;;;;;;;;;16.30;99.90;;;;;;5036052;28;19925;-73
2021/06/26 09:59:40;;;;;;;;;;;16.40;99.90;;;;;;5035631;28;19983;-72
2021/06/26 10:02:07;;;;;;;;;;;16.40;99.90;;;;;;5035614;28;19936;-73
2021/06/26 10:04:34;;;;;;;;;;;16.40;99.90;;;;;;5035393;28;19939;-73
2021/06/26 10:07:01;;;;;;;;;;;16.30;99.90;;;;;;5035526;28;19925;-73
2021/06/26 10:09:27;;;;;;;;;;;16.30;99.90;;;;;;5035437;28;20362;-73
2021/06/26 10:11:54;;;;;;;;;;;16.40;99.90;;;;;;5035579;28;19925;-73
2021/06/26 10:14:21;;;;;;;;;;;16.40;99.90;;;;;;5035494;28;19925;-73
2021/06/26 10:16:50;;;;;;;;;;;16.60;99.90;;;;;;5035663;28;19925;-73
2021/06/26 10:19:17;;;;;;;;;;;16.70;99.90;;;;;;5035141;28;19937;-73
2021/06/26 10:21:44;;;;;;;;;;;16.80;99.90;;;;;;5035577;28;19925;-73
2021/06/26 10:24:11;;;;;;;;;;;16.80;99.90;;;;;;5035551;28;19986;-73
2021/06/26 10:26:39;;;;;;;;;;;16.90;99.90;;;;;;5035212;28;19935;-72
2021/06/26 10:29:05;;;;;;;;;;;17.00;99.90;;;;;;5035217;28;20019;-73
2021/06/26 10:31:33;;;;;;;;;;;17.10;99.90;;;;;;5035374;28;20262;-73
2021/06/26 10:34:14;;;;;;;;;;;17.40;99.90;;;;;;5035109;28;19925;-72
2021/06/26 10:36:44;;;;;;;;;;;17.50;99.90;;;;;;5035597;28;19994;-73
2021/06/26 10:39:17;;;;;;;;;;;17.60;99.90;;;;;;5035236;28;19925;-72
2021/06/26 10:41:44;;;;;;;;;;;17.60;99.90;;;;;;5035383;28;19929;-73
2021/06/26 10:44:11;;;;;;;;;;;17.60;99.90;;;;;;5035119;28;20012;-73
2021/06/26 10:46:46;;;;;;;;;;;17.60;99.90;;;;;;5035309;28;19925;-73
2021/06/26 10:49:14;;;;;;;;;;;17.60;99.90;;;;;;5035271;28;19951;-73
2021/06/26 10:51:42;;;;;;;;;;;17.60;99.90;;;;;;5031808;28;19926;-73
2021/06/26 10:54:09;;;;;;;;;;;17.60;99.90;;;;;;5043039;28;19925;-73
2021/06/26 10:56:36;;;;;;;;;;;17.50;99.90;;;;;;5051132;28;19928;-73
2021/06/26 10:59:08;;;;;;;;;;;17.60;99.90;;;;;;5054701;28;20287;-73
2021/06/26 11:01:35;;;;;;;;;;;17.70;99.90;;;;;;5054854;28;20023;-73
2021/06/26 11:04:05;;;;;;;;;;;17.90;99.90;;;;;;5054932;28;20357;-73
2021/06/26 11:06:35;;;;;;;;;;;18.00;99.90;;;;;;5054747;28;19991;-73
2021/06/26 11:09:02;;;;;;;;;;;18.10;99.90;;;;;;5054777;28;19931;-73
2021/06/26 11:11:30;;;;;;;;;;;18.10;99.90;;;;;;5054767;28;19924;-73
2021/06/26 11:14:13;;;;;;;;;;;18.10;99.90;;;;;;5054660;28;19986;-73
2021/06/26 11:16:40;;;;;;;;;;;18.20;99.90;;;;;;5054829;28;20028;-73
2021/06/26 11:19:07;;;;;;;;;;;18.20;99.90;;;;;;5054645;28;20023;-72
2021/06/26 11:21:42;;;;;;;;;;;18.20;99.90;;;;;;5039880;28;19925;-72
2021/06/26 11:24:10;;;;;;;;;;;18.10;99.90;;;;;;5034619;28;20289;-73
2021/06/26 11:26:54;;;;;;;;;;;18.10;99.90;;;;;;5034912;28;19931;-72
2021/06/26 11:29:28;;;;;;;;;;;18.10;99.90;;;;;;5034918;28;20273;-73
2021/06/26 11:31:55;;;;;;;;;;;18.10;99.90;;;;;;5034650;28;20006;-73
2021/06/26 11:34:22;;;;;;;;;;;18.00;99.90;;;;;;5034431;28;19925;-72
2021/06/26 11:37:00;;;;;;;;;;;17.80;99.90;;;;;;5034263;28;19925;-72
2021/06/26 11:39:27;;;;;;;;;;;17.60;99.90;;;;;;5034536;28;20357;-72
2021/06/26 11:41:53;;;;;;;;;;;17.60;99.90;;;;;;5033643;28;19935;-72
2021/06/26 11:44:30;;;;;;;;;;;17.60;99.90;;;;;;5038109;28;20004;-73
2021/06/26 11:47:00;;;;;;;;;;;17.60;99.90;;;;;;5038118;28;19936;-73
2021/06/26 11:49:32;;;;;;;;;;;17.60;99.90;;;;;;5038103;28;20338;-72
2021/06/26 11:52:00;;;;;;;;;;;17.50;99.90;;;;;;5038134;28;19925;-72
2021/06/26 11:54:27;;;;;;;;;;;17.50;99.90;;;;;;5038075;28;19925;-73
2021/06/26 11:56:54;;;;;;;;;;;17.40;99.90;;;;;;5038243;28;19936;-73
2021/06/26 11:59:22;;;;;;;;;;;17.30;99.90;;;;;;5038334;28;19936;-72
2021/06/26 12:01:50;;;;;;;;;;;17.20;99.90;;;;;;5037928;28;19936;-73
2021/06/26 12:04:26;;;;;;;;;;;17.10;99.90;;;;;;5037872;28;19925;-73
2021/06/26 12:06:53;;;;;;;;;;;17.10;99.90;;;;;;5037885;28;19931;-72
2021/06/26 12:09:23;;;;;;;;;;;17.10;99.90;;;;;;5037849;28;19925;-72
2021/06/26 12:11:50;;;;;;;;;;;17.20;99.90;;;;;;5037697;28;19925;-73
2021/06/26 12:14:17;;;;;;;;;;;17.20;99.90;;;;;;5037678;28;19925;-73
2021/06/26 12:16:44;;;;;;;;;;;17.20;99.90;;;;;;5037820;28;19926;-72
2021/06/26 12:19:11;;;;;;;;;;;17.30;99.90;;;;;;5037715;28;20273;-73
2021/06/26 12:21:41;;;;;;;;;;;17.30;99.90;;;;;;5037527;28;20349;-72
2021/06/26 12:24:08;;;;;;;;;;;17.30;99.90;;;;;;5037611;28;19925;-72
2021/06/26 12:26:36;;;;;;;;;;;17.30;99.90;;;;;;5037518;28;19929;-72
2021/06/26 12:29:03;;;;;;;;;;;17.30;99.90;;;;;;5037497;28;19932;-72
2021/06/26 12:31:41;;;;;;;;;;;17.30;99.90;;;;;;5037488;28;19931;-73
2021/06/26 12:34:07;;;;;;;;;;;17.40;99.90;;;;;;5037571;28;20246;-72
2021/06/26 12:36:34;;;;;;;;;;;17.40;99.90;;;;;;5037380;28;20294;-72
2021/06/26 12:39:01;;;;;;;;;;;17.30;99.90;;;;;;5037161;28;19925;-72
2021/06/26 12:41:28;;;;;;;;;;;17.40;99.90;;;;;;5037056;28;19925;-73
2021/06/26 12:44:00;;;;;;;;;;;17.40;99.90;;;;;;5035397;28;20352;-72
2021/06/26 12:46:27;;;;;;;;;;;17.40;99.90;;;;;;5055046;28;19925;-73
2021/06/26 12:48:58;;;;;;;;;;;17.50;99.90;;;;;;5056632;28;19960;-74
2021/06/26 12:51:31;;;;;;;;;;;17.60;99.90;;;;;;5043732;28;19973;-73
2021/06/26 12:53:58;;;;;;;;;;;17.60;99.90;;;;;;5035994;28;20256;-73
2021/06/26 12:56:25;;;;;;;;;;;17.60;99.90;;;;;;5036925;28;20403;-73
2021/06/26 12:58:53;;;;;;;;;;;17.70;99.90;;;;;;5037006;28;19995;-73
2021/06/26 13:01:21;;;;;;;;;;;17.70;99.90;;;;;;5036831;28;19925;-73
2021/06/26 13:03:51;;;;;;;;;;;17.70;99.90;;;;;;5036927;28;19975;-72
2021/06/26 13:06:18;;;;;;;;;;;17.70;99.90;;;;;;5036748;28;20019;-72
2021/06/26 13:08:47;;;;;;;;;;;17.80;99.90;;;;;;5036612;28;20031;-72
2021/06/26 13:11:14;;;;;;;;;;;18.00;99.90;;;;;;5036692;28;19960;-71
2021/06/26 13:13:41;;;;;;;;;;;18.10;99.90;;;;;;5036788;28;20409;-72
2021/06/26 13:16:07;;;;;;;;;;;18.20;99.90;;;;;;5036640;28;20326;-72
2021/06/26 13:18:38;;;;;;;;;;;18.40;99.90;;;;;;5035818;28;20116;-72
2021/06/26 13:21:11;;;;;;;;;;;18.60;99.90;;;;;;5036957;28;19925;-72
2021/06/26 13:23:38;;;;;;;;;;;18.70;99.90;;;;;;5036417;28;20247;-72
2021/06/26 13:26:05;;;;;;;;;;;18.70;99.90;;;;;;5036456;28;20338;-72
2021/06/26 13:28:32;;;;;;;;;;;18.80;99.90;;;;;;5036481;28;19925;-74
2021/06/26 13:30:59;;;;;;;;;;;18.80;99.90;;;;;;5036343;28;19925;-73
2021/06/26 13:33:26;;;;;;;;;;;18.80;99.90;;;;;;5036369;28;19928;-73
2021/06/26 13:35:54;;;;;;;;;;;18.90;99.90;;;;;;5036406;28;19925;-74
2021/06/26 13:38:21;;;;;;;;;;;18.90;99.90;;;;;;5036411;28;19936;-73
2021/06/26 13:40:50;;;;;;;;;;;18.90;99.90;;;;;;5036280;28;19925;-72
2021/06/26 13:43:18;;;;;;;;;;;18.90;99.90;;;;;;5036225;28;19932;-73
2021/06/26 13:45:46;;;;;;;;;;;19.00;99.90;;;;;;5035904;28;19925;-73
2021/06/26 13:48:13;;;;;;;;;;;19.00;99.90;;;;;;5036085;28;20424;-73
2021/06/26 13:50:40;;;;;;;;;;;19.10;99.90;;;;;;5036508;28;19925;-73
2021/06/26 13:53:08;;;;;;;;;;;19.00;99.90;;;;;;5035886;28;19925;-74
2021/06/26 13:55:35;;;;;;;;;;;19.00;99.90;;;;;;5035990;28;20012;-72
2021/06/26 13:58:02;;;;;;;;;;;18.90;99.90;;;;;;5035569;28;19975;-72
2021/06/26 14:00:32;;;;;;;;;;;18.90;99.90;;;;;;5035007;28;19972;-72
2021/06/26 14:02:59;;;;;;;;;;;18.90;99.90;;;;;;5035667;28;20360;-73
2021/06/26 14:05:27;;;;;;;;;;;19.00;99.90;;;;;;5034638;28;20331;-73
2021/06/26 14:07:54;;;;;;;;;;;19.00;99.90;;;;;;5035533;28;20007;-73
2021/06/26 14:10:22;;;;;;;;;;;19.00;99.90;;;;;;5035609;28;20380;-73
2021/06/26 14:12:49;;;;;;;;;;;19.00;99.90;;;;;;5035585;28;19971;-73
2021/06/26 14:15:16;;;;;;;;;;;19.10;99.90;;;;;;5035552;28;20374;-73
2021/06/26 14:17:43;;;;;;;;;;;19.10;99.90;;;;;;5036076;28;19943;-73